sensor_id;sensor_type;location;lat;lon;timestamp;pressure;altitude;pressure_sealevel;temperature;humidity
69574;BME280;62840;52.366;5.980;2023-03-05T00:01:25;102119.78;;;4.03;68.85
69574;BME280;62840;52.366;5.980;2023-03-05T00:03:56;102110.13;;;4.01;69.02
69574;BME280;62840;52.366;5.980;2023-03-05T00:06:23;102104.03;;;3.99;68.92
69574;BME280;62840;52.366;5.980;2023-03-05T00:08:50;102105.09;;;3.95;68.93
69574;BME280;62840;52.366;5.980;2023-03-05T00:11:16;102105.00;;;3.97;69.06
69574;BME280;62840;52.366;5.980;2023-03-05T00:13:42;102107.72;;;3.95;69.18
69574;BME280;62840;52.366;5.980;2023-03-05T00:16:09;102108.63;;;3.94;69.07
69574;BME280;62840;52.366;5.980;2023-03-05T00:18:37;102105.13;;;3.94;69.45
69574;BME280;62840;52.366;5.980;2023-03-05T00:21:16;102106.91;;;3.93;69.30
69574;BME280;62840;52.366;5.980;2023-03-05T00:23:44;102102.53;;;3.92;69.10
69574;BME280;62840;52.366;5.980;2023-03-05T00:26:10;102101.69;;;3.92;69.37
69574;BME280;62840;52.366;5.980;2023-03-05T00:28:35;102097.25;;;3.92;69.31
69574;BME280;62840;52.366;5.980;2023-03-05T00:31:01;102099.91;;;3.92;69.35
69574;BME280;62840;52.366;5.980;2023-03-05T00:33:27;102100.72;;;3.94;69.50
69574;BME280;62840;52.366;5.980;2023-03-05T00:35:53;102097.19;;;3.95;69.27
69574;BME280;62840;52.366;5.980;2023-03-05T00:38:21;102088.31;;;3.96;69.28
69574;BME280;62840;52.366;5.980;2023-03-05T00:40:49;102088.22;;;3.99;69.40
69574;BME280;62840;52.366;5.980;2023-03-05T00:43:15;102089.94;;;4.00;69.55
69574;BME280;62840;52.366;5.980;2023-03-05T00:45:41;102088.22;;;3.99;69.38
69574;BME280;62840;52.366;5.980;2023-03-05T00:48:06;102087.31;;;4.00;69.35
69574;BME280;62840;52.366;5.980;2023-03-05T00:50:32;102092.47;;;4.04;69.60
69574;BME280;62840;52.366;5.980;2023-03-05T00:52:58;102079.28;;;4.04;69.25
69574;BME280;62840;52.366;5.980;2023-03-05T00:55:26;102082.84;;;4.03;69.58
69574;BME280;62840;52.366;5.980;2023-03-05T00:57:52;102075.78;;;4.03;69.68
69574;BME280;62840;52.366;5.980;2023-03-05T01:00:18;102077.44;;;4.06;69.72
69574;BME280;62840;52.366;5.980;2023-03-05T01:02:44;102065.06;;;4.08;69.73
69574;BME280;62840;52.366;5.980;2023-03-05T01:05:11;102061.47;;;4.09;69.56
69574;BME280;62840;52.366;5.980;2023-03-05T01:07:38;102070.22;;;4.11;69.58
69574;BME280;62840;52.366;5.980;2023-03-05T01:10:05;102067.53;;;4.12;69.67
69574;BME280;62840;52.366;5.980;2023-03-05T01:12:35;102060.47;;;4.13;69.65
69574;BME280;62840;52.366;5.980;2023-03-05T01:15:01;102056.00;;;4.15;69.44
69574;BME280;62840;52.366;5.980;2023-03-05T01:17:27;102048.88;;;4.17;69.59
69574;BME280;62840;52.366;5.980;2023-03-05T01:19:53;102049.81;;;4.16;69.61
69574;BME280;62840;52.366;5.980;2023-03-05T01:22:18;102048.88;;;4.17;69.82
69574;BME280;62840;52.366;5.980;2023-03-05T01:24:44;102040.97;;;4.17;69.82
69574;BME280;62840;52.366;5.980;2023-03-05T01:27:10;102038.31;;;4.17;69.85
69574;BME280;62840;52.366;5.980;2023-03-05T01:29:38;102041.75;;;4.19;70.01
69574;BME280;62840;52.366;5.980;2023-03-05T01:32:04;102036.47;;;4.19;69.98
69574;BME280;62840;52.366;5.980;2023-03-05T01:34:30;102038.19;;;4.20;69.98
69574;BME280;62840;52.366;5.980;2023-03-05T01:36:56;102030.28;;;4.20;70.23
69574;BME280;62840;52.366;5.980;2023-03-05T01:39:22;102027.72;;;4.18;70.24
69574;BME280;62840;52.366;5.980;2023-03-05T01:41:48;102025.91;;;4.19;70.06
69574;BME280;62840;52.366;5.980;2023-03-05T01:44:20;102018.00;;;4.19;70.03
69574;BME280;62840;52.366;5.980;2023-03-05T01:46:51;102018.94;;;4.18;70.09
69574;BME280;62840;52.366;5.980;2023-03-05T01:49:20;102016.28;;;4.18;70.09
69574;BME280;62840;52.366;5.980;2023-03-05T01:51:56;102013.66;;;4.18;70.39
69574;BME280;62840;52.366;5.980;2023-03-05T01:54:31;102004.03;;;4.15;70.28
69574;BME280;62840;52.366;5.980;2023-03-05T01:57:05;102009.31;;;4.15;70.25
69574;BME280;62840;52.366;5.980;2023-03-05T01:59:33;101999.66;;;4.16;70.54
69574;BME280;62840;52.366;5.980;2023-03-05T02:02:04;101997.81;;;4.18;70.22
69574;BME280;62840;52.366;5.980;2023-03-05T02:04:36;101992.53;;;4.18;70.39
69574;BME280;62840;52.366;5.980;2023-03-05T02:07:07;101985.38;;;4.20;70.48
69574;BME280;62840;52.366;5.980;2023-03-05T02:09:36;101984.47;;;4.21;70.31
69574;BME280;62840;52.366;5.980;2023-03-05T02:12:03;101987.13;;;4.21;70.35
69574;BME280;62840;52.366;5.980;2023-03-05T02:14:30;101975.72;;;4.20;70.50
69574;BME280;62840;52.366;5.980;2023-03-05T02:16:57;101971.28;;;4.21;70.41
69574;BME280;62840;52.366;5.980;2023-03-05T02:19:26;101966.00;;;4.21;70.53
69574;BME280;62840;52.366;5.980;2023-03-05T02:21:54;101963.31;;;4.22;70.38
69574;BME280;62840;52.366;5.980;2023-03-05T02:24:33;101965.88;;;4.24;70.57
69574;BME280;62840;52.366;5.980;2023-03-05T02:27:02;101958.88;;;4.23;70.60
69574;BME280;62840;52.366;5.980;2023-03-05T02:29:29;101951.88;;;4.22;70.57
69574;BME280;62840;52.366;5.980;2023-03-05T02:31:57;101946.59;;;4.22;70.58
69574;BME280;62840;52.366;5.980;2023-03-05T02:34:23;101950.03;;;4.24;70.71
69574;BME280;62840;52.366;5.980;2023-03-05T02:36:49;101950.97;;;4.23;70.51
69574;BME280;62840;52.366;5.980;2023-03-05T02:39:17;101945.63;;;4.25;70.70
69574;BME280;62840;52.366;5.980;2023-03-05T02:41:43;101945.63;;;4.25;70.68
69574;BME280;62840;52.366;5.980;2023-03-05T02:44:08;101944.75;;;4.24;70.79
69574;BME280;62840;52.366;5.980;2023-03-05T02:46:34;101944.75;;;4.24;70.91
69574;BME280;62840;52.366;5.980;2023-03-05T02:49:00;101933.28;;;4.25;70.87
69574;BME280;62840;52.366;5.980;2023-03-05T02:51:26;101932.47;;;4.23;70.86
69574;BME280;62840;52.366;5.980;2023-03-05T02:53:52;101925.38;;;4.25;70.86
69574;BME280;62840;52.366;5.980;2023-03-05T02:56:20;101921.00;;;4.24;70.64
69574;BME280;62840;52.366;5.980;2023-03-05T02:58:46;101930.66;;;4.25;70.60
69574;BME280;62840;52.366;5.980;2023-03-05T03:01:11;101921.00;;;4.24;70.85
69574;BME280;62840;52.366;5.980;2023-03-05T03:03:37;101918.34;;;4.24;70.71
69574;BME280;62840;52.366;5.980;2023-03-05T03:06:04;101918.34;;;4.24;70.87
69574;BME280;62840;52.366;5.980;2023-03-05T03:08:30;101902.50;;;4.24;70.89
69574;BME280;62840;52.366;5.980;2023-03-05T03:11:03;101906.81;;;4.27;70.75
69574;BME280;62840;52.366;5.980;2023-03-05T03:13:33;101907.69;;;4.27;70.98
69574;BME280;62840;52.366;5.980;2023-03-05T03:16:04;101900.66;;;4.26;70.82
69574;BME280;62840;52.366;5.980;2023-03-05T03:18:31;101900.66;;;4.26;70.82
69574;BME280;62840;52.366;5.980;2023-03-05T03:20:57;101897.16;;;4.26;70.72
69574;BME280;62840;52.366;5.980;2023-03-05T03:23:23;101891.94;;;4.24;70.73
69574;BME280;62840;52.366;5.980;2023-03-05T03:25:50;101887.59;;;4.23;70.85
69574;BME280;62840;52.366;5.980;2023-03-05T03:28:16;101890.22;;;4.23;70.83
69574;BME280;62840;52.366;5.980;2023-03-05T03:30:44;101881.50;;;4.21;70.65
69574;BME280;62840;52.366;5.980;2023-03-05T03:33:11;101878.88;;;4.21;70.74
69574;BME280;62840;52.366;5.980;2023-03-05T03:35:36;101870.09;;;4.20;71.06
69574;BME280;62840;52.366;5.980;2023-03-05T03:38:02;101874.50;;;4.20;70.91
69574;BME280;62840;52.366;5.980;2023-03-05T03:40:29;101870.19;;;4.17;70.99
69574;BME280;62840;52.366;5.980;2023-03-05T03:42:55;101864.06;;;4.17;70.87
69574;BME280;62840;52.366;5.980;2023-03-05T03:45:21;101862.38;;;4.16;71.00
69574;BME280;62840;52.366;5.980;2023-03-05T03:47:50;101869.34;;;4.17;70.78
69574;BME280;62840;52.366;5.980;2023-03-05T03:50:17;101858.78;;;4.17;70.83
69574;BME280;62840;52.366;5.980;2023-03-05T03:52:43;101855.25;;;4.18;70.98
69574;BME280;62840;52.366;5.980;2023-03-05T03:55:09;101859.63;;;4.17;70.98
69574;BME280;62840;52.366;5.980;2023-03-05T03:57:35;101849.97;;;4.18;70.75
69574;BME280;62840;52.366;5.980;2023-03-05T04:00:01;101850.88;;;4.17;70.81
69574;BME280;62840;52.366;5.980;2023-03-05T04:02:28;101846.53;;;4.16;70.77
69574;BME280;62840;52.366;5.980;2023-03-05T04:04:56;101846.53;;;4.16;70.84
69574;BME280;62840;52.366;5.980;2023-03-05T04:07:22;101843.06;;;4.14;71.10
69574;BME280;62840;52.366;5.980;2023-03-05T04:09:48;101841.25;;;4.16;70.88
69574;BME280;62840;52.366;5.980;2023-03-05T04:12:13;101835.97;;;4.16;70.90
69574;BME280;62840;52.366;5.980;2023-03-05T04:14:39;101842.09;;;4.16;70.97
69574;BME280;62840;52.366;5.980;2023-03-05T04:17:05;101829.78;;;4.15;70.98
69574;BME280;62840;52.366;5.980;2023-03-05T04:19:31;101829.78;;;4.15;70.99
69574;BME280;62840;52.366;5.980;2023-03-05T04:21:59;101832.53;;;4.14;70.93
69574;BME280;62840;52.366;5.980;2023-03-05T04:24:25;101822.84;;;4.13;70.95
69574;BME280;62840;52.366;5.980;2023-03-05T04:26:51;101813.25;;;4.12;71.14
69574;BME280;62840;52.366;5.980;2023-03-05T04:29:17;101829.06;;;4.12;71.05
69574;BME280;62840;52.366;5.980;2023-03-05T04:31:43;101816.78;;;4.11;71.13
69574;BME280;62840;52.366;5.980;2023-03-05T04:34:09;101809.81;;;4.10;71.19
69574;BME280;62840;52.366;5.980;2023-03-05T04:36:34;101808.06;;;4.09;71.08
69574;BME280;62840;52.366;5.980;2023-03-05T04:39:03;101812.50;;;4.08;71.17
69574;BME280;62840;52.366;5.980;2023-03-05T04:41:29;101806.34;;;4.08;71.32
69574;BME280;62840;52.366;5.980;2023-03-05T04:43:54;101806.34;;;4.08;71.28
69574;BME280;62840;52.366;5.980;2023-03-05T04:46:20;101806.34;;;4.08;71.29
69574;BME280;62840;52.366;5.980;2023-03-05T04:48:46;101808.19;;;4.06;71.19
69574;BME280;62840;52.366;5.980;2023-03-05T04:51:12;101795.94;;;4.05;71.18
69574;BME280;62840;52.366;5.980;2023-03-05T04:53:37;101797.78;;;4.03;71.01
69574;BME280;62840;52.366;5.980;2023-03-05T04:56:06;101796.03;;;4.01;71.01
69574;BME280;62840;52.366;5.980;2023-03-05T04:58:32;101797.88;;;3.99;71.13
69574;BME280;62840;52.366;5.980;2023-03-05T05:01:00;101808.44;;;3.99;71.25
69574;BME280;62840;52.366;5.980;2023-03-05T05:03:26;101794.44;;;3.97;71.16
69574;BME280;62840;52.366;5.980;2023-03-05T05:05:56;101800.66;;;3.96;71.11
69574;BME280;62840;52.366;5.980;2023-03-05T05:08:23;101797.16;;;3.96;71.26
69574;BME280;62840;52.366;5.980;2023-03-05T05:11:00;101799.72;;;3.97;71.45
69574;BME280;62840;52.366;5.980;2023-03-05T05:13:31;101790.88;;;3.98;71.35
69574;BME280;62840;52.366;5.980;2023-03-05T05:15:57;101795.22;;;3.99;71.40
69574;BME280;62840;52.366;5.980;2023-03-05T05:18:23;101788.19;;;4.00;71.29
69574;BME280;62840;52.366;5.980;2023-03-05T05:20:50;101789.06;;;4.00;71.27
69574;BME280;62840;52.366;5.980;2023-03-05T05:23:16;101784.63;;;4.01;71.13
69574;BME280;62840;52.366;5.980;2023-03-05T05:25:42;101787.31;;;3.99;71.33
69574;BME280;62840;52.366;5.980;2023-03-05T05:28:09;101782.03;;;3.99;71.26
69574;BME280;62840;52.366;5.980;2023-03-05T05:30:38;101780.34;;;3.98;71.41
69574;BME280;62840;52.366;5.980;2023-03-05T05:33:04;101778.59;;;3.97;71.35
69574;BME280;62840;52.366;5.980;2023-03-05T05:35:29;101777.75;;;3.97;71.24
69574;BME280;62840;52.366;5.980;2023-03-05T05:37:55;101773.31;;;3.97;71.46
69574;BME280;62840;52.366;5.980;2023-03-05T05:40:21;101771.47;;;3.99;71.43
69574;BME280;62840;52.366;5.980;2023-03-05T05:42:47;101767.00;;;4.01;71.31
69574;BME280;62840;52.366;5.980;2023-03-05T05:45:12;101765.22;;;4.02;71.37
69574;BME280;62840;52.366;5.980;2023-03-05T05:47:41;101765.22;;;4.02;71.38
69574;BME280;62840;52.366;5.980;2023-03-05T05:50:07;101760.03;;;4.00;71.18
69574;BME280;62840;52.366;5.980;2023-03-05T05:52:35;101767.94;;;4.00;71.40
69574;BME280;62840;52.366;5.980;2023-03-05T05:55:00;101764.50;;;3.98;71.43
69574;BME280;62840;52.366;5.980;2023-03-05T05:57:26;101771.47;;;3.99;71.36
69574;BME280;62840;52.366;5.980;2023-03-05T05:59:52;101773.22;;;4.00;71.33
69574;BME280;62840;52.366;5.980;2023-03-05T06:02:18;101778.50;;;4.00;71.53
69574;BME280;62840;52.366;5.980;2023-03-05T06:04:46;101775.91;;;3.99;71.58
69574;BME280;62840;52.366;5.980;2023-03-05T06:07:12;101779.47;;;3.98;71.71
69574;BME280;62840;52.366;5.980;2023-03-05T06:09:37;101775.19;;;3.95;71.54
69574;BME280;62840;52.366;5.980;2023-03-05T06:12:04;101776.91;;;3.96;71.54
69574;BME280;62840;52.366;5.980;2023-03-05T06:14:31;101775.19;;;3.95;71.66
69574;BME280;62840;52.366;5.980;2023-03-05T06:16:57;101771.63;;;3.96;71.67
69574;BME280;62840;52.366;5.980;2023-03-05T06:19:23;101769.78;;;3.98;71.80
69574;BME280;62840;52.366;5.980;2023-03-05T06:21:51;101762.66;;;4.00;71.82
69574;BME280;62840;52.366;5.980;2023-03-05T06:24:17;101767.81;;;4.04;71.71
69574;BME280;62840;52.366;5.980;2023-03-05T06:26:42;101758.09;;;4.04;71.51
69574;BME280;62840;52.366;5.980;2023-03-05T06:29:08;101753.69;;;4.05;71.78
69574;BME280;62840;52.366;5.980;2023-03-05T06:31:34;101763.28;;;4.07;71.78
69574;BME280;62840;52.366;5.980;2023-03-05T06:34:00;101761.47;;;4.08;71.93
69574;BME280;62840;52.366;5.980;2023-03-05T06:36:26;101763.19;;;4.09;71.66
69574;BME280;62840;52.366;5.980;2023-03-05T06:38:56;101759.59;;;4.11;71.75
69574;BME280;62840;52.366;5.980;2023-03-05T06:41:24;101760.44;;;4.12;71.54
69574;BME280;62840;52.366;5.980;2023-03-05T06:43:52;101760.44;;;4.12;71.78
69574;BME280;62840;52.366;5.980;2023-03-05T06:46:21;101758.72;;;4.11;71.70
69574;BME280;62840;52.366;5.980;2023-03-05T06:48:49;101763.88;;;4.14;71.74
69574;BME280;62840;52.366;5.980;2023-03-05T06:51:17;101757.66;;;4.15;71.90
69574;BME280;62840;52.366;5.980;2023-03-05T06:53:46;101751.47;;;4.16;71.96
69574;BME280;62840;52.366;5.980;2023-03-05T06:56:15;101758.47;;;4.17;71.79
69574;BME280;62840;52.366;5.980;2023-03-05T06:58:41;101756.63;;;4.19;71.92
69574;BME280;62840;52.366;5.980;2023-03-05T07:01:08;101751.34;;;4.19;72.12
69574;BME280;62840;52.366;5.980;2023-03-05T07:03:35;101750.34;;;4.21;71.87
69574;BME280;62840;52.366;5.980;2023-03-05T07:06:02;101750.28;;;4.23;72.10
69574;BME280;62840;52.366;5.980;2023-03-05T07:08:28;101754.63;;;4.24;71.92
69574;BME280;62840;52.366;5.980;2023-03-05T07:10:54;101754.53;;;4.27;71.89
69574;BME280;62840;52.366;5.980;2023-03-05T07:13:22;101746.53;;;4.29;71.87
69574;BME280;62840;52.366;5.980;2023-03-05T07:15:48;101750.81;;;4.31;72.13
69574;BME280;62840;52.366;5.980;2023-03-05T07:18:14;101754.25;;;4.33;72.06
69574;BME280;62840;52.366;5.980;2023-03-05T07:20:40;101748.97;;;4.33;72.18
69574;BME280;62840;52.366;5.980;2023-03-05T07:23:05;101752.41;;;4.35;72.16
69574;BME280;62840;52.366;5.980;2023-03-05T07:25:34;101754.16;;;4.36;72.02
69574;BME280;62840;52.366;5.980;2023-03-05T07:28:00;101746.22;;;4.36;72.14
69574;BME280;62840;52.366;5.980;2023-03-05T07:30:28;101747.03;;;4.38;72.28
69574;BME280;62840;52.366;5.980;2023-03-05T07:32:54;101747.03;;;4.38;72.09
69574;BME280;62840;52.366;5.980;2023-03-05T07:35:20;101745.94;;;4.42;72.16
69574;BME280;62840;52.366;5.980;2023-03-05T07:37:45;101743.19;;;4.46;72.17
69574;BME280;62840;52.366;5.980;2023-03-05T07:40:11;101750.06;;;4.50;72.16
69574;BME280;62840;52.366;5.980;2023-03-05T07:42:37;101749.13;;;4.51;72.27
69574;BME280;62840;52.366;5.980;2023-03-05T07:45:04;101744.63;;;4.53;72.38
69574;BME280;62840;52.366;5.980;2023-03-05T07:47:33;101751.63;;;4.54;72.36
69574;BME280;62840;52.366;5.980;2023-03-05T07:50:00;101751.50;;;4.57;72.38
69574;BME280;62840;52.366;5.980;2023-03-05T07:52:25;101745.25;;;4.59;72.37
69574;BME280;62840;52.366;5.980;2023-03-05T07:54:51;101750.38;;;4.62;72.29
69574;BME280;62840;52.366;5.980;2023-03-05T07:57:17;101753.75;;;4.66;72.30
69574;BME280;62840;52.366;5.980;2023-03-05T07:59:43;101743.97;;;4.68;72.17
69574;BME280;62840;52.366;5.980;2023-03-05T08:02:09;101742.13;;;4.70;71.98
69574;BME280;62840;52.366;5.980;2023-03-05T08:04:38;101741.19;;;4.71;72.20
69574;BME280;62840;52.366;5.980;2023-03-05T08:07:04;101737.56;;;4.74;72.27
69574;BME280;62840;52.366;5.980;2023-03-05T08:09:30;101741.00;;;4.76;72.27
69574;BME280;62840;52.366;5.980;2023-03-05T08:11:56;101740.00;;;4.78;72.12
69574;BME280;62840;52.366;5.980;2023-03-05T08:14:22;101742.59;;;4.80;72.19
69574;BME280;62840;52.366;5.980;2023-03-05T08:16:48;101738.94;;;4.82;72.29
69574;BME280;62840;52.366;5.980;2023-03-05T08:19:13;101738.16;;;4.80;72.23
69574;BME280;62840;52.366;5.980;2023-03-05T08:21:42;101732.88;;;4.80;71.91
69574;BME280;62840;52.366;5.980;2023-03-05T08:24:09;101732.00;;;4.80;72.04
69574;BME280;62840;52.366;5.980;2023-03-05T08:26:37;101730.22;;;4.80;71.91
69574;BME280;62840;52.366;5.980;2023-03-05T08:29:04;101738.16;;;4.80;72.06
69574;BME280;62840;52.366;5.980;2023-03-05T08:31:30;101731.16;;;4.79;72.00
69574;BME280;62840;52.366;5.980;2023-03-05T08:33:58;101726.56;;;4.83;72.01
69574;BME280;62840;52.366;5.980;2023-03-05T08:36:25;101722.03;;;4.87;72.19
69574;BME280;62840;52.366;5.980;2023-03-05T08:38:54;101726.19;;;4.92;72.22
69574;BME280;62840;52.366;5.980;2023-03-05T08:41:20;101719.00;;;4.96;72.06
69574;BME280;62840;52.366;5.980;2023-03-05T08:43:46;101720.66;;;4.98;71.93
69574;BME280;62840;52.366;5.980;2023-03-05T08:46:13;101711.72;;;5.01;71.92
69574;BME280;62840;52.366;5.980;2023-03-05T08:48:40;101707.22;;;5.03;72.03
69574;BME280;62840;52.366;5.980;2023-03-05T08:51:07;101711.50;;;5.05;72.14
69574;BME280;62840;52.366;5.980;2023-03-05T08:53:34;101708.66;;;5.10;72.16
69574;BME280;62840;52.366;5.980;2023-03-05T08:56:02;101701.50;;;5.12;72.26
69574;BME280;62840;52.366;5.980;2023-03-05T08:58:29;101702.19;;;5.17;72.30
69574;BME280;62840;52.366;5.980;2023-03-05T09:00:55;101695.66;;;5.24;72.31
69574;BME280;62840;52.366;5.980;2023-03-05T09:03:21;101689.09;;;5.33;72.10
69574;BME280;62840;52.366;5.980;2023-03-05T09:05:47;101694.94;;;5.40;72.04
69574;BME280;62840;52.366;5.980;2023-03-05T09:08:13;101680.78;;;5.41;72.00
69574;BME280;62840;52.366;5.980;2023-03-05T09:10:40;101687.38;;;5.51;71.46
69574;BME280;62840;52.366;5.980;2023-03-05T09:13:09;101683.47;;;5.58;71.51
69574;BME280;62840;52.366;5.980;2023-03-05T09:15:35;101681.47;;;5.63;71.51
69574;BME280;62840;52.366;5.980;2023-03-05T09:18:01;101677.59;;;5.71;71.76
69574;BME280;62840;52.366;5.980;2023-03-05T09:20:27;101675.59;;;5.76;71.54
69574;BME280;62840;52.366;5.980;2023-03-05T09:22:53;101683.31;;;5.80;71.48
69574;BME280;62840;52.366;5.980;2023-03-05T09:25:20;101680.44;;;5.85;71.22
69574;BME280;62840;52.366;5.980;2023-03-05T09:27:46;101675.13;;;5.85;71.22
69574;BME280;62840;52.366;5.980;2023-03-05T09:30:15;101676.84;;;5.86;70.92
69574;BME280;62840;52.366;5.980;2023-03-05T09:32:41;101676.69;;;5.89;70.80
69574;BME280;62840;52.366;5.980;2023-03-05T09:35:08;101676.59;;;5.91;70.64
69574;BME280;62840;52.366;5.980;2023-03-05T09:37:35;101673.03;;;5.92;70.93
69574;BME280;62840;52.366;5.980;2023-03-05T09:40:00;101670.94;;;5.98;70.97
69574;BME280;62840;52.366;5.980;2023-03-05T09:42:42;101663.31;;;6.09;70.85
69574;BME280;62840;52.366;5.980;2023-03-05T09:45:23;101666.50;;;6.16;70.31
69574;BME280;62840;52.366;5.980;2023-03-05T09:47:55;101668.16;;;6.19;69.96
69574;BME280;62840;52.366;5.980;2023-03-05T09:50:35;101662.84;;;6.19;69.85
69574;BME280;62840;52.366;5.980;2023-03-05T09:53:19;101658.47;;;6.18;69.95
69574;BME280;62840;52.366;5.980;2023-03-05T09:55:54;101648.66;;;6.20;69.92
69574;BME280;62840;52.366;5.980;2023-03-05T09:58:29;101653.72;;;6.24;69.33
69574;BME280;62840;52.366;5.980;2023-03-05T10:01:05;101648.34;;;6.26;69.07
69574;BME280;62840;52.366;5.980;2023-03-05T10:03:43;101646.47;;;6.28;68.83
69574;BME280;62840;52.366;5.980;2023-03-05T10:06:21;101641.63;;;6.36;68.86
69574;BME280;62840;52.366;5.980;2023-03-05T10:08:53;101639.59;;;6.41;68.82
69574;BME280;62840;52.366;5.980;2023-03-05T10:11:42;101647.22;;;6.47;68.86
69574;BME280;62840;52.366;5.980;2023-03-05T10:14:25;101634.59;;;6.53;68.35
69574;BME280;62840;52.366;5.980;2023-03-05T10:17:23;101644.19;;;6.55;68.31
69574;BME280;62840;52.366;5.980;2023-03-05T10:20:14;101646.91;;;6.54;68.12
69574;BME280;62840;52.366;5.980;2023-03-05T10:23:02;101656.13;;;6.46;67.98
69574;BME280;62840;52.366;5.980;2023-03-05T10:25:51;101662.19;;;6.31;67.87
69574;BME280;62840;52.366;5.980;2023-03-05T10:28:28;101653.75;;;6.07;68.06
69574;BME280;62840;52.366;5.980;2023-03-05T10:31:08;101646.09;;;5.83;68.36
69574;BME280;62840;52.366;5.980;2023-03-05T10:33:56;101644.41;;;5.63;68.71
69574;BME280;62840;52.366;5.980;2023-03-05T10:36:42;101646.03;;;5.49;69.17
69574;BME280;62840;52.366;5.980;2023-03-05T10:39:39;101636.44;;;5.46;69.75
69574;BME280;62840;52.366;5.980;2023-03-05T10:42:20;101631.16;;;5.46;70.14
69574;BME280;62840;52.366;5.980;2023-03-05T10:44:54;101634.56;;;5.48;70.15
69574;BME280;62840;52.366;5.980;2023-03-05T10:47:24;101632.72;;;5.50;70.23
69574;BME280;62840;52.366;5.980;2023-03-05T10:49:57;101628.16;;;5.54;70.46
69574;BME280;62840;52.366;5.980;2023-03-05T10:52:28;101621.69;;;5.59;70.69
69574;BME280;62840;52.366;5.980;2023-03-05T10:54:59;101617.03;;;5.64;70.50
69574;BME280;62840;52.366;5.980;2023-03-05T10:57:27;101620.25;;;5.71;70.70
69574;BME280;62840;52.366;5.980;2023-03-05T11:00:00;101612.91;;;5.76;70.81
69574;BME280;62840;52.366;5.980;2023-03-05T11:02:52;101608.00;;;5.86;70.81
69574;BME280;62840;52.366;5.980;2023-03-05T11:05:42;101601.31;;;5.96;70.58
69574;BME280;62840;52.366;5.980;2023-03-05T11:08:32;101596.47;;;6.04;70.61
69574;BME280;62840;52.366;5.980;2023-03-05T11:11:05;101599.59;;;6.13;70.46
69574;BME280;62840;52.366;5.980;2023-03-05T11:13:42;101592.13;;;6.21;70.47
69574;BME280;62840;52.366;5.980;2023-03-05T11:16:18;101589.91;;;6.29;70.31
69574;BME280;62840;52.366;5.980;2023-03-05T11:18:45;101582.59;;;6.34;70.10
69574;BME280;62840;52.366;5.980;2023-03-05T11:21:19;101573.50;;;6.38;70.01
69574;BME280;62840;52.366;5.980;2023-03-05T11:24:03;101575.38;;;6.36;69.40
69574;BME280;62840;52.366;5.980;2023-03-05T11:26:30;101570.97;;;6.37;69.94
69574;BME280;62840;52.366;5.980;2023-03-05T11:28:58;101561.03;;;6.40;69.85
69574;BME280;62840;52.366;5.980;2023-03-05T11:31:27;101556.69;;;6.39;69.80
69574;BME280;62840;52.366;5.980;2023-03-05T11:33:57;101556.63;;;6.41;69.90
69574;BME280;62840;52.366;5.980;2023-03-05T11:36:30;101561.03;;;6.40;70.01
69574;BME280;62840;52.366;5.980;2023-03-05T11:38:59;101559.34;;;6.39;70.10
69574;BME280;62840;52.366;5.980;2023-03-05T11:41:36;101550.31;;;6.43;70.18
69574;BME280;62840;52.366;5.980;2023-03-05T11:44:10;101547.47;;;6.46;69.97
69574;BME280;62840;52.366;5.980;2023-03-05T11:46:41;101546.38;;;6.50;69.68
69574;BME280;62840;52.366;5.980;2023-03-05T11:49:14;101539.19;;;6.53;69.54
69574;BME280;62840;52.366;5.980;2023-03-05T11:51:51;101533.66;;;6.57;69.31
69574;BME280;62840;52.366;5.980;2023-03-05T11:54:28;101539.63;;;6.61;69.60
69574;BME280;62840;52.366;5.980;2023-03-05T11:57:05;101530.41;;;6.68;69.36
69574;BME280;62840;52.366;5.980;2023-03-05T11:59:33;101524.59;;;6.77;69.51
69574;BME280;62840;52.366;5.980;2023-03-05T12:02:01;101516.28;;;6.83;68.35
69574;BME280;62840;52.366;5.980;2023-03-05T12:04:28;101517.81;;;6.87;68.35
69574;BME280;62840;52.366;5.980;2023-03-05T12:07:02;101509.59;;;6.92;68.12
69574;BME280;62840;52.366;5.980;2023-03-05T12:09:38;101517.28;;;6.97;68.20
69574;BME280;62840;52.366;5.980;2023-03-05T12:12:11;101512.69;;;7.00;67.85
69574;BME280;62840;52.366;5.980;2023-03-05T12:14:55;101502.78;;;7.04;67.46
69574;BME280;62840;52.366;5.980;2023-03-05T12:17:30;101500.50;;;7.12;67.51
69574;BME280;62840;52.366;5.980;2023-03-05T12:20:05;101485.94;;;7.19;67.20
69574;BME280;62840;52.366;5.980;2023-03-05T12:22:42;101489.03;;;7.27;67.11
69574;BME280;62840;52.366;5.980;2023-03-05T12:25:27;101478.06;;;7.33;66.64
69574;BME280;62840;52.366;5.980;2023-03-05T12:27:56;101472.56;;;7.37;66.59
69574;BME280;62840;52.366;5.980;2023-03-05T12:30:55;101467.84;;;7.42;66.59
69574;BME280;62840;52.366;5.980;2023-03-05T12:33:32;101466.72;;;7.46;66.21
69574;BME280;62840;52.366;5.980;2023-03-05T12:36:35;101454.31;;;7.46;65.85
69574;BME280;62840;52.366;5.980;2023-03-05T12:39:45;101461.44;;;7.46;64.21
69574;BME280;62840;52.366;5.980;2023-03-05T12:42:43;101451.00;;;7.43;64.84
69574;BME280;62840;52.366;5.980;2023-03-05T12:45:28;101445.81;;;7.40;65.57
69574;BME280;62840;52.366;5.980;2023-03-05T12:51:12;101436.97;;;7.41;65.31
69574;BME280;62840;52.366;5.980;2023-03-05T12:53:51;101425.31;;;7.43;65.66
69574;BME280;62840;52.366;5.980;2023-03-05T12:56:21;101420.50;;;7.50;65.44
69574;BME280;62840;52.366;5.980;2023-03-05T12:58:56;101423.53;;;7.58;65.49
69574;BME280;62840;52.366;5.980;2023-03-05T13:01:39;101425.25;;;7.59;64.22
69574;BME280;62840;52.366;5.980;2023-03-05T13:04:15;101422.78;;;7.56;64.08
69574;BME280;62840;52.366;5.980;2023-03-05T13:06:43;101423.22;;;7.48;64.33
69574;BME280;62840;52.366;5.980;2023-03-05T13:09:15;101412.13;;;7.42;64.64
69574;BME280;62840;52.366;5.980;2023-03-05T13:11:47;101414.19;;;7.37;64.27
69574;BME280;62840;52.366;5.980;2023-03-05T13:14:27;101402.03;;;7.32;64.54
69574;BME280;62840;52.366;5.980;2023-03-05T13:16:56;101402.44;;;7.26;64.08